Time;durP1;ratioP1;P1;durP2;ratioP2;P2;SDS_P1;SDS_P2;PMS_P1;PMS_P2;Temp;Humidity;BMP_temperature;BMP_pressure;BME280_temperature;BME280_humidity;BME280_pressure;Samples;Min_cycle;Max_cycle;Signal;HPM_P1;HPM_P2
2023/12/06 00:00:07;;;;;;;;;;;;;;;3.63;100.00;101094.41;5120436;28;19935;-37
2023/12/06 00:02:34;;;;;;;;;;;;;;;3.64;100.00;101090.81;5116315;28;19920;-40
2023/12/06 00:04:59;;;;;;;;;;;;;;;3.64;100.00;101094.28;5116124;28;19919;-39
2023/12/06 00:07:25;;;;;;;;;;;;;;;3.64;100.00;101094.28;5115680;28;19945;-40
2023/12/06 00:09:50;;;;;;;;;;;;;;;3.66;100.00;101100.34;5115790;28;20309;-38
2023/12/06 00:12:15;;;;;;;;;;;;;;;3.67;100.00;101099.34;5115277;28;19920;-38
2023/12/06 00:14:40;;;;;;;;;;;;;;;3.64;100.00;101104.09;5115008;28;19973;-37
2023/12/06 00:17:05;;;;;;;;;;;;;;;3.62;100.00;101106.03;5115545;28;19927;-39
2023/12/06 00:19:31;;;;;;;;;;;;;;;3.62;100.00;101109.53;5115195;28;20230;-37
2023/12/06 00:21:56;;;;;;;;;;;;;;;3.63;100.00;101110.38;5114579;28;19927;-38
2023/12/06 00:24:21;;;;;;;;;;;;;;;3.62;100.00;101117.53;5114748;28;19920;-39
2023/12/06 00:26:48;;;;;;;;;;;;;;;3.65;100.00;101117.25;5115355;28;19951;-39
2023/12/06 00:29:13;;;;;;;;;;;;;;;3.65;100.00;101119.94;5115121;28;19931;-39
2023/12/06 00:31:38;;;;;;;;;;;;;;;3.64;100.00;101126.25;5120959;28;19926;-39
2023/12/06 00:34:03;;;;;;;;;;;;;;;3.64;100.00;101126.25;5124535;28;19941;-39
2023/12/06 00:36:29;;;;;;;;;;;;;;;3.67;100.00;101125.97;5125573;28;19927;-39
2023/12/06 00:38:54;;;;;;;;;;;;;;;3.64;100.00;101126.25;5119639;28;19920;-37
2023/12/06 00:41:20;;;;;;;;;;;;;;;3.64;100.00;101131.56;5115595;28;19927;-39
2023/12/06 00:43:45;;;;;;;;;;;;;;;3.67;100.00;101133.97;5114546;28;19920;-38
2023/12/06 00:46:10;;;;;;;;;;;;;;;3.65;100.00;101135.91;5114688;28;19973;-37
2023/12/06 00:48:35;;;;;;;;;;;;;;;3.65;100.00;101138.56;5114675;28;20162;-39
2023/12/06 00:51:01;;;;;;;;;;;;;;;3.66;100.00;101136.72;5113800;28;20440;-39
2023/12/06 00:53:27;;;;;;;;;;;;;;;3.68;100.00;101148.94;5114444;28;19920;-38
2023/12/06 00:55:53;;;;;;;;;;;;;;;3.67;100.00;101147.25;5112970;28;19920;-39
2023/12/06 00:58:18;;;;;;;;;;;;;;;3.68;100.00;101143.63;5113951;28;21201;-39
2023/12/06 01:00:43;;;;;;;;;;;;;;;3.70;100.00;101152.31;5114190;28;19924;-39
2023/12/06 01:03:08;;;;;;;;;;;;;;;3.70;100.00;101152.31;5114623;28;19972;-39
2023/12/06 01:05:33;;;;;;;;;;;;;;;3.76;100.00;101158.09;5115139;28;19920;-38
2023/12/06 01:07:59;;;;;;;;;;;;;;;3.79;100.00;101161.38;5116162;28;19958;-38
2023/12/06 01:10:24;;;;;;;;;;;;;;;3.86;100.00;101167.00;5115707;28;19924;-38
2023/12/06 01:12:49;;;;;;;;;;;;;;;3.97;100.00;101158.94;5114939;28;19927;-39
2023/12/06 01:15:14;;;;;;;;;;;;;;;4.00;100.00;101171.16;5114120;28;19920;-39
2023/12/06 01:17:40;;;;;;;;;;;;;;;4.02;100.00;101174.53;5114607;28;19934;-39
2023/12/06 01:20:06;;;;;;;;;;;;;;;4.03;100.00;101169.09;5115821;28;19931;-39
2023/12/06 01:22:31;;;;;;;;;;;;;;;4.06;100.00;101165.31;5115238;28;19927;-39
2023/12/06 01:24:57;;;;;;;;;;;;;;;4.10;100.00;101167.56;5116499;28;19915;-39
2023/12/06 01:27:22;;;;;;;;;;;;;;;4.09;100.00;101165.03;5116201;28;19939;-39
2023/12/06 01:29:48;;;;;;;;;;;;;;;4.09;100.00;101163.22;5116524;28;20309;-39
2023/12/06 01:32:13;;;;;;;;;;;;;;;4.10;100.00;101175.56;5116466;28;20354;-39
2023/12/06 01:34:38;;;;;;;;;;;;;;;4.12;100.00;101178.09;5114817;28;20353;-40
2023/12/06 01:37:03;;;;;;;;;;;;;;;4.11;100.00;101176.41;5115775;28;20305;-39
2023/12/06 01:39:28;;;;;;;;;;;;;;;4.12;100.00;101178.94;5115849;28;19920;-39
2023/12/06 01:41:54;;;;;;;;;;;;;;;4.13;100.00;101175.31;5113670;28;20014;-39
2023/12/06 01:44:20;;;;;;;;;;;;;;;4.13;100.00;101179.78;5114246;28;19931;-39
2023/12/06 01:46:45;;;;;;;;;;;;;;;4.14;100.00;101187.63;5114513;28;20366;-38
2023/12/06 01:49:11;;;;;;;;;;;;;;;4.16;100.00;101185.69;5116923;27;20403;-39
2023/12/06 01:51:36;;;;;;;;;;;;;;;4.18;100.00;101197.03;5126525;27;19920;-38
2023/12/06 01:54:01;;;;;;;;;;;;;;;4.17;100.00;101194.53;5111864;28;20259;-39
2023/12/06 01:56:27;;;;;;;;;;;;;;;4.21;100.00;101203.94;5112249;28;20013;-39
2023/12/06 01:58:52;;;;;;;;;;;;;;;4.23;100.00;101201.16;5113154;28;20280;-39
2023/12/06 02:01:17;;;;;;;;;;;;;;;4.22;100.00;101204.78;5112950;28;19919;-38
2023/12/06 02:03:43;;;;;;;;;;;;;;;4.25;100.00;101201.88;5120548;28;19966;-38
2023/12/06 02:06:08;;;;;;;;;;;;;;;4.26;100.00;101207.03;5125034;28;19926;-38
2023/12/06 02:08:34;;;;;;;;;;;;;;;4.28;100.00;101212.25;5125676;28;19915;-38
2023/12/06 02:11:00;;;;;;;;;;;;;;;4.33;100.00;101213.53;5118437;28;19927;-38
2023/12/06 02:13:26;;;;;;;;;;;;;;;4.32;100.00;101219.03;5114807;28;19919;-38
2023/12/06 02:15:51;;;;;;;;;;;;;;;4.29;100.00;101214.78;5114990;28;19926;-37
2023/12/06 02:18:16;;;;;;;;;;;;;;;4.30;100.00;101213.81;5093898;28;19920;-38
2023/12/06 02:20:41;;;;;;;;;;;;;;;4.26;100.00;101217.69;5107382;28;19984;-38
2023/12/06 02:23:07;;;;;;;;;;;;;;;4.26;100.00;101211.53;5117709;28;20010;-38
2023/12/06 02:25:32;;;;;;;;;;;;;;;4.26;100.00;101216.88;5117800;28;19926;-39
2023/12/06 02:27:58;;;;;;;;;;;;;;;4.25;100.00;101217.84;5117703;28;19920;-38
2023/12/06 02:30:23;;;;;;;;;;;;;;;4.26;100.00;101219.53;5117187;27;19974;-38
2023/12/06 02:32:48;;;;;;;;;;;;;;;4.27;100.00;101219.41;5116893;28;19920;-38
2023/12/06 02:35:15;;;;;;;;;;;;;;;4.29;100.00;101212.13;5116498;28;19927;-38
2023/12/06 02:37:40;;;;;;;;;;;;;;;4.26;100.00;101216.88;5115776;28;19920;-39
2023/12/06 02:40:06;;;;;;;;;;;;;;;4.25;100.00;101223.19;5116709;28;19920;-38
2023/12/06 02:42:31;;;;;;;;;;;;;;;4.25;100.00;101224.00;5114747;28;19916;-38
2023/12/06 02:44:56;;;;;;;;;;;;;;;4.26;100.00;101222.19;5116887;28;19920;-38
2023/12/06 02:47:22;;;;;;;;;;;;;;;4.26;100.00;101219.53;5116490;28;19969;-38
2023/12/06 02:49:47;;;;;;;;;;;;;;;4.27;100.00;101226.56;5116528;28;19972;-38
2023/12/06 02:52:12;;;;;;;;;;;;;;;4.29;100.00;101232.59;5116927;28;20374;-39
2023/12/06 02:54:38;;;;;;;;;;;;;;;4.36;100.00;101228.41;5116807;28;19920;-38
2023/12/06 02:57:03;;;;;;;;;;;;;;;4.47;100.00;101225.66;5116459;28;19920;-40
2023/12/06 02:59:28;;;;;;;;;;;;;;;4.41;100.00;101223.53;5115582;28;19926;-40
2023/12/06 03:01:53;;;;;;;;;;;;;;;4.43;100.00;101229.59;5115974;28;19959;-42
2023/12/06 03:04:19;;;;;;;;;;;;;;;4.49;100.00;101223.72;5115717;28;19920;-41
2023/12/06 03:06:44;;;;;;;;;;;;;;;4.44;100.00;101231.25;5115415;28;19920;-41
2023/12/06 03:09:09;;;;;;;;;;;;;;;4.43;100.00;101232.25;5115246;28;19924;-42
2023/12/06 03:11:34;;;;;;;;;;;;;;;4.42;100.00;101233.22;5115773;28;19923;-40
2023/12/06 03:13:59;;;;;;;;;;;;;;;4.46;100.00;101239.13;5116278;28;19973;-40
2023/12/06 03:16:25;;;;;;;;;;;;;;;4.48;100.00;101237.19;5116423;28;20138;-39
2023/12/06 03:18:51;;;;;;;;;;;;;;;4.55;100.00;101236.50;5115921;28;19920;-40
2023/12/06 03:21:16;;;;;;;;;;;;;;;4.58;100.00;101238.06;5110903;28;19973;-39
2023/12/06 03:23:41;;;;;;;;;;;;;;;4.59;100.00;101239.75;5115906;28;19916;-39
2023/12/06 03:26:07;;;;;;;;;;;;;;;4.57;100.00;101236.38;5116174;28;19920;-39
2023/12/06 03:28:32;;;;;;;;;;;;;;;4.65;100.00;101236.56;5115330;27;19920;-39
2023/12/06 03:30:57;;;;;;;;;;;;;;;4.57;100.00;101231.06;5116122;28;19988;-39
2023/12/06 03:33:23;;;;;;;;;;;;;;;4.59;100.00;101227.28;5118282;28;19916;-39
2023/12/06 03:35:48;;;;;;;;;;;;;;;4.59;100.00;101224.59;5122068;28;19942;-38
2023/12/06 03:38:13;;;;;;;;;;;;;;;4.54;100.00;101220.66;5121981;28;19922;-39
2023/12/06 03:40:39;;;;;;;;;;;;;;;4.55;100.00;101223.19;5119540;28;19927;-39
2023/12/06 03:43:04;;;;;;;;;;;;;;;4.57;100.00;101218.56;5119896;28;19916;-39
2023/12/06 03:45:29;;;;;;;;;;;;;;;4.67;100.00;101205.28;5116728;28;19919;-38
2023/12/06 03:47:54;;;;;;;;;;;;;;;4.71;100.00;101201.34;5115989;28;19968;-39
2023/12/06 03:50:19;;;;;;;;;;;;;;;4.79;100.00;101203.34;5115254;28;20026;-39
2023/12/06 03:52:45;;;;;;;;;;;;;;;4.78;100.00;101196.34;5115529;28;19928;-38
2023/12/06 03:55:11;;;;;;;;;;;;;;;4.76;100.00;101206.28;5116892;28;19984;-39
2023/12/06 03:57:36;;;;;;;;;;;;;;;4.75;100.00;101207.28;5116799;28;19916;-38
2023/12/06 04:00:03;;;;;;;;;;;;;;;4.75;100.00;101207.28;5115426;28;19989;-38
2023/12/06 04:02:28;;;;;;;;;;;;;;;4.79;100.00;101203.34;5117054;28;20340;-39
2023/12/06 04:04:53;;;;;;;;;;;;;;;4.92;100.00;101203.94;5115658;28;19928;-38
2023/12/06 04:07:19;;;;;;;;;;;;;;;4.90;100.00;101205.94;5115093;28;19924;-38
2023/12/06 04:09:44;;;;;;;;;;;;;;;4.96;100.00;101201.88;5114529;28;19927;-38
2023/12/06 04:12:09;;;;;;;;;;;;;;;4.98;100.00;101207.91;5114921;28;19924;-39
2023/12/06 04:14:34;;;;;;;;;;;;;;;4.93;100.00;101205.66;5115312;28;19919;-38
2023/12/06 04:17:00;;;;;;;;;;;;;;;4.97;100.00;101212.38;5115558;28;19965;-39
2023/12/06 04:19:25;;;;;;;;;;;;;;;5.00;100.00;101208.59;5115086;28;20396;-38
2023/12/06 04:21:51;;;;;;;;;;;;;;;5.00;100.00;101217.47;5115339;28;19924;-39
2023/12/06 04:24:16;;;;;;;;;;;;;;;4.97;100.00;101217.72;5115005;28;20270;-39
2023/12/06 04:26:41;;;;;;;;;;;;;;;4.97;100.00;101222.22;5115542;28;19916;-39
2023/12/06 04:29:06;;;;;;;;;;;;;;;5.03;100.00;101216.34;5114661;28;19926;-40
2023/12/06 04:31:31;;;;;;;;;;;;;;;5.03;100.00;101219.84;5115424;28;19916;-39
2023/12/06 04:33:57;;;;;;;;;;;;;;;5.05;100.00;101220.56;5115703;28;19922;-38
2023/12/06 04:36:22;;;;;;;;;;;;;;;5.05;100.00;101209.03;5113037;28;19919;-40
2023/12/06 04:38:49;;;;;;;;;;;;;;;5.03;100.00;101214.53;5104525;28;19928;-39
2023/12/06 04:41:14;;;;;;;;;;;;;;;5.02;100.00;101212.81;5115226;28;20376;-40
2023/12/06 04:43:40;;;;;;;;;;;;;;;5.02;100.00;101210.16;5117621;28;19920;-39
2023/12/06 04:46:05;;;;;;;;;;;;;;;5.06;100.00;101211.56;5116333;27;19920;-38
2023/12/06 04:48:30;;;;;;;;;;;;;;;5.03;100.00;101219.84;5116536;28;20014;-39
2023/12/06 04:50:55;;;;;;;;;;;;;;;5.02;100.00;101217.31;5114986;28;20005;-39
2023/12/06 04:53:21;;;;;;;;;;;;;;;5.04;100.00;101215.34;5114851;28;19924;-40
2023/12/06 04:55:46;;;;;;;;;;;;;;;5.00;100.00;101228.13;5112426;28;19919;-39
2023/12/06 04:58:11;;;;;;;;;;;;;;;5.00;100.00;101233.47;5112556;28;19923;-39
2023/12/06 05:00:36;;;;;;;;;;;;;;;4.98;100.00;101238.09;5112496;28;19920;-38
2023/12/06 05:03:02;;;;;;;;;;;;;;;5.02;100.00;101239.50;5116812;28;19930;-39
2023/12/06 05:05:27;;;;;;;;;;;;;;;5.01;100.00;101240.47;5117868;27;19919;-41
2023/12/06 05:07:52;;;;;;;;;;;;;;;5.02;100.00;101242.16;5117679;28;19934;-39
2023/12/06 05:10:18;;;;;;;;;;;;;;;5.06;100.00;101242.75;5118214;28;19935;-40
2023/12/06 05:12:43;;;;;;;;;;;;;;;5.04;100.00;101252.72;5121018;28;20370;-38
2023/12/06 05:15:09;;;;;;;;;;;;;;;5.11;100.00;101251.19;5115007;28;19920;-40
2023/12/06 05:17:34;;;;;;;;;;;;;;;5.06;100.00;101254.25;5111104;28;20393;-40
2023/12/06 05:19:59;;;;;;;;;;;;;;;5.05;100.00;101252.59;5112264;28;19963;-39
2023/12/06 05:22:24;;;;;;;;;;;;;;;5.17;100.00;101255.13;5112151;28;19968;-40
2023/12/06 05:24:50;;;;;;;;;;;;;;;5.15;100.00;101255.25;5111411;28;19927;-37
2023/12/06 05:27:15;;;;;;;;;;;;;;;5.13;100.00;101243.88;5111513;28;20080;-40
2023/12/06 05:29:40;;;;;;;;;;;;;;;5.07;100.00;101245.25;5111253;28;20014;-39
2023/12/06 05:32:06;;;;;;;;;;;;;;;5.03;100.00;101249.19;5111533;28;20026;-40
2023/12/06 05:34:31;;;;;;;;;;;;;;;5.11;100.00;101258.31;5111539;28;21032;-37
2023/12/06 05:36:57;;;;;;;;;;;;;;;5.10;100.00;101261.97;5112309;28;19935;-41
2023/12/06 05:39:22;;;;;;;;;;;;;;;5.07;100.00;101261.28;5116737;28;20350;-40
2023/12/06 05:41:48;;;;;;;;;;;;;;;5.09;100.00;101265.66;5117448;28;20084;-40
2023/12/06 05:44:13;;;;;;;;;;;;;;;5.04;100.00;101261.53;5119851;28;19923;-39
2023/12/06 05:46:38;;;;;;;;;;;;;;;5.09;100.00;101260.31;5115608;28;19924;-40
2023/12/06 05:49:04;;;;;;;;;;;;;;;5.04;100.00;101274.88;5114856;28;19919;-38
2023/12/06 05:51:29;;;;;;;;;;;;;;;5.02;100.00;101279.50;5113578;28;19923;-40
2023/12/06 05:53:54;;;;;;;;;;;;;;;5.04;100.00;101287.38;5113826;28;19942;-39
2023/12/06 05:56:20;;;;;;;;;;;;;;;4.96;100.00;101280.06;5113232;28;19920;-39
2023/12/06 05:58:45;;;;;;;;;;;;;;;4.90;100.00;101285.94;5113112;28;19919;-39
2023/12/06 06:01:10;;;;;;;;;;;;;;;4.85;100.00;101293.50;5114230;28;19919;-38
2023/12/06 06:03:35;;;;;;;;;;;;;;;4.74;100.00;101290.88;5113298;28;20054;-38
2023/12/06 06:06:07;;;;;;;;;;;;;;;4.76;100.00;101288.94;5113265;28;19988;-38
2023/12/06 06:08:32;;;;;;;;;;;;;;;4.69;100.00;101295.81;5113409;28;19927;-39
2023/12/06 06:10:58;;;;;;;;;;;;;;;4.65;100.00;101286.38;5111056;28;20274;-39
2023/12/06 06:13:28;;;;;;;;;;;;;;;4.53;100.00;101282.94;5112979;28;19920;-39
2023/12/06 06:15:54;;;;;;;;;;;;;;;4.39;100.00;101284.13;5114091;28;20065;-39
2023/12/06 06:18:19;;;;;;;;;;;;;;;4.31;100.00;101283.94;5114652;28;19959;-39
2023/12/06 06:20:44;;;;;;;;;;;;;;;4.22;100.00;101290.06;5115745;28;20436;-39
2023/12/06 06:23:11;;;;;;;;;;;;;;;4.16;100.00;101292.25;5114713;28;19920;-39
2023/12/06 06:25:36;;;;;;;;;;;;;;;4.10;100.00;101292.75;5115002;28;20362;-39
2023/12/06 06:28:02;;;;;;;;;;;;;;;4.05;100.00;101299.44;5113025;28;19926;-39
2023/12/06 06:30:27;;;;;;;;;;;;;;;3.95;100.00;101302.88;5113085;28;19930;-39
2023/12/06 06:32:53;;;;;;;;;;;;;;;3.86;100.00;101313.44;5118206;28;19990;-39
2023/12/06 06:35:18;;;;;;;;;;;;;;;3.85;100.00;101319.75;5117748;28;19920;-38
2023/12/06 06:37:43;;;;;;;;;;;;;;;3.79;100.00;101314.91;5119533;28;19919;-40
2023/12/06 06:40:09;;;;;;;;;;;;;;;3.78;100.00;101311.41;5120553;28;19919;-39
2023/12/06 06:42:35;;;;;;;;;;;;;;;3.78;100.00;101307.91;5122345;28;20366;-39
2023/12/06 06:45:02;;;;;;;;;;;;;;;3.76;100.00;101315.19;5124026;28;19961;-39
2023/12/06 06:47:27;;;;;;;;;;;;;;;3.67;100.00;101312.31;5118443;28;19919;-39
2023/12/06 06:49:53;;;;;;;;;;;;;;;3.65;100.00;101319.56;5113922;28;20331;-40
2023/12/06 06:52:18;;;;;;;;;;;;;;;3.62;100.00;101325.13;5114020;28;19981;-39
2023/12/06 06:54:44;;;;;;;;;;;;;;;3.63;100.00;101332.13;5112976;28;19920;-38
2023/12/06 06:57:09;;;;;;;;;;;;;;;3.65;100.00;101329.38;5113171;28;19943;-38
2023/12/06 06:59:34;;;;;;;;;;;;;;;3.70;100.00;101328.00;5112962;28;19916;-40
2023/12/06 07:01:59;;;;;;;;;;;;;;;3.74;100.00;101331.28;5111866;28;19920;-39
2023/12/06 07:04:25;;;;;;;;;;;;;;;3.80;100.00;101343.25;5113904;28;19923;-38
2023/12/06 07:06:50;;;;;;;;;;;;;;;3.83;100.00;101335.84;5115201;28;20354;-39
2023/12/06 07:09:15;;;;;;;;;;;;;;;3.88;100.00;101340.81;5116888;28;20373;-38
2023/12/06 07:11:40;;;;;;;;;;;;;;;3.92;100.00;101353.75;5116544;28;20362;-40
2023/12/06 07:14:05;;;;;;;;;;;;;;;3.98;100.00;101349.72;5119768;28;20404;-39
2023/12/06 07:16:31;;;;;;;;;;;;;;;4.05;100.00;101350.88;5125337;28;19916;-40
2023/12/06 07:18:57;;;;;;;;;;;;;;;4.10;100.00;101342.53;5123526;28;19923;-39
2023/12/06 07:21:23;;;;;;;;;;;;;;;4.18;100.00;101345.38;5116824;28;19920;-38
2023/12/06 07:23:48;;;;;;;;;;;;;;;4.25;100.00;101345.75;5115653;28;20006;-40
2023/12/06 07:26:13;;;;;;;;;;;;;;;4.25;100.00;101349.25;5115303;28;20010;-39
2023/12/06 07:28:39;;;;;;;;;;;;;;;4.24;100.00;101349.34;5115460;28;19977;-38
2023/12/06 07:31:05;;;;;;;;;;;;;;;4.29;100.00;101349.81;5111398;28;20398;-39
2023/12/06 07:33:30;;;;;;;;;;;;;;;4.29;100.00;101352.47;5115868;28;19919;-39
2023/12/06 07:35:55;;;;;;;;;;;;;;;4.23;100.00;101351.19;5114684;28;19979;-40
2023/12/06 07:38:21;;;;;;;;;;;;;;;4.29;100.00;101352.47;5117322;28;20020;-40
2023/12/06 07:40:47;;;;;;;;;;;;;;;4.28;100.00;101358.78;5121141;27;19927;-40
2023/12/06 07:43:12;;;;;;;;;;;;;;;4.32;100.00;101360.25;5122928;27;19926;-39
2023/12/06 07:45:38;;;;;;;;;;;;;;;4.36;100.00;101367.81;5128942;27;19920;-38
2023/12/06 07:48:03;;;;;;;;;;;;;;;4.39;100.00;101366.72;5136324;27;20437;-39
2023/12/06 07:50:28;;;;;;;;;;;;;;;4.46;100.00;101372.41;5125828;27;19916;-39
2023/12/06 07:52:54;;;;;;;;;;;;;;;4.51;100.00;101368.38;5116314;28;20322;-38
2023/12/06 07:55:19;;;;;;;;;;;;;;;4.56;100.00;101374.16;5115668;28;20389;-39
2023/12/06 07:57:44;;;;;;;;;;;;;;;4.68;100.00;101374.09;5115288;28;19927;-39
2023/12/06 08:00:13;;;;;;;;;;;;;;;4.77;100.00;101383.97;5115376;28;19922;-39
2023/12/06 08:02:39;;;;;;;;;;;;;;;4.81;100.00;101378.22;5121763;27;19915;-40
2023/12/06 08:05:06;;;;;;;;;;;;;;;4.85;100.00;101384.16;5123886;27;19915;-39
2023/12/06 08:07:31;;;;;;;;;;;;;;;4.92;100.00;101379.97;5141632;27;19920;-39
2023/12/06 08:09:56;;;;;;;;;;;;;;;5.11;100.00;101381.06;5130974;27;19938;-39
2023/12/06 08:12:21;;;;;;;;;;;;;;;5.27;100.00;101378.75;5114862;28;20467;-38
2023/12/06 08:14:47;;;;;;;;;;;;;;;5.34;100.00;101379.06;5119891;28;20365;-39
2023/12/06 08:17:12;;;;;;;;;;;;;;;5.35;100.00;101383.44;5118398;28;19922;-39
2023/12/06 08:19:37;;;;;;;;;;;;;;;5.31;100.00;101379.31;5116008;28;19915;-38
2023/12/06 08:22:02;;;;;;;;;;;;;;;5.35;100.00;101392.28;5132688;27;19924;-39
2023/12/06 08:24:27;;;;;;;;;;;;;;;5.30;100.00;101383.81;5136959;27;20100;-39
2023/12/06 08:26:53;;;;;;;;;;;;;;;5.28;100.00;101391.94;5136088;27;20003;-38
2023/12/06 08:29:18;;;;;;;;;;;;;;;5.24;100.00;101395.06;5129328;27;19974;-39
2023/12/06 08:31:43;;;;;;;;;;;;;;;5.26;100.00;101393.06;5114522;28;19920;-38
2023/12/06 08:34:09;;;;;;;;;;;;;;;5.25;100.00;101402.06;5119632;27;19919;-40
2023/12/06 08:36:34;;;;;;;;;;;;;;;5.28;100.00;101397.28;5115544;27;19915;-39
2023/12/06 08:38:59;;;;;;;;;;;;;;;5.30;100.00;101405.19;5130701;27;20415;-39
2023/12/06 08:41:24;;;;;;;;;;;;;;;5.32;100.00;101413.03;5117469;27;20363;-39
2023/12/06 08:43:50;;;;;;;;;;;;;;;5.37;100.00;101410.81;5114327;28;19920;-38
2023/12/06 08:46:15;;;;;;;;;;;;;;;5.34;100.00;101417.25;5114591;28;19926;-39
2023/12/06 08:48:40;;;;;;;;;;;;;;;5.31;100.00;101414.88;5114768;28;19915;-39
2023/12/06 08:51:05;;;;;;;;;;;;;;;5.29;100.00;101416.81;5112969;28;19944;-39
2023/12/06 08:53:31;;;;;;;;;;;;;;;5.30;100.00;101421.19;5114593;28;20386;-39
2023/12/06 08:55:56;;;;;;;;;;;;;;;5.24;100.00;101427.06;5113255;28;20019;-39
2023/12/06 08:58:22;;;;;;;;;;;;;;;5.24;100.00;101432.41;5114663;28;19999;-39
2023/12/06 09:00:48;;;;;;;;;;;;;;;5.22;100.00;101434.34;5113290;27;20369;-39
2023/12/06 09:03:13;;;;;;;;;;;;;;;5.21;100.00;101435.31;5114208;28;20404;-39
2023/12/06 09:05:38;;;;;;;;;;;;;;;5.21;100.00;101440.66;5114539;28;19919;-39
2023/12/06 09:08:04;;;;;;;;;;;;;;;5.22;100.00;101435.19;5113215;28;20338;-39
2023/12/06 09:10:29;;;;;;;;;;;;;;;5.22;100.00;101437.03;5111632;28;20022;-39
2023/12/06 09:12:54;;;;;;;;;;;;;;;5.32;100.00;101440.59;5113753;28;20574;-39
2023/12/06 09:15:21;;;;;;;;;;;;;;;5.43;100.00;101437.81;5113014;28;20160;-39
2023/12/06 09:17:47;;;;;;;;;;;;;;;5.42;100.00;101435.28;5113464;28;20402;-40
2023/12/06 09:20:12;;;;;;;;;;;;;;;5.49;100.00;101439.94;5112231;28;20017;-39
2023/12/06 09:22:37;;;;;;;;;;;;;;;5.55;100.00;101437.72;5112323;28;19919;-39
2023/12/06 09:25:06;;;;;;;;;;;;;;;5.61;100.00;101430.03;5113610;28;19920;-39
2023/12/06 09:27:31;;;;;;;;;;;;;;;5.71;100.00;101432.72;5112245;28;19919;-40
2023/12/06 09:29:57;;;;;;;;;;;;;;;5.82;100.00;101446.00;5108557;28;20362;-40
2023/12/06 09:32:23;;;;;;;;;;;;;;;5.93;100.00;101443.22;5111175;28;19923;-39
2023/12/06 09:34:48;;;;;;;;;;;;;;;6.00;100.00;101445.34;5112043;28;20306;-39
2023/12/06 09:37:13;;;;;;;;;;;;;;;6.06;100.00;101444.81;5116127;28;19935;-41
2023/12/06 09:39:38;;;;;;;;;;;;;;;6.16;100.00;101448.31;5128286;27;20030;-41
2023/12/06 09:42:04;;;;;;;;;;;;;;;6.52;100.00;101448.66;5114543;28;19958;-39
2023/12/06 09:44:30;;;;;;;;;;;;;;;6.87;100.00;101444.53;5113895;28;20000;-38
2023/12/06 09:46:56;;;;;;;;;;;;;;;7.00;100.00;101450.44;5113373;28;20403;-39
2023/12/06 09:49:21;;;;;;;;;;;;;;;7.09;100.00;101446.06;5120422;27;19955;-39
2023/12/06 09:51:46;;;;;;;;;;;;;;;7.32;100.00;101449.22;5115430;27;19983;-39
2023/12/06 09:54:12;;;;;;;;;;;;;;;7.22;100.00;101449.28;5113592;28;19959;-39
2023/12/06 09:56:37;;;;;;;;;;;;;;;7.20;100.00;101446.72;5121970;27;19926;-41
2023/12/06 09:59:03;;;;;;;;;;;;;;;7.13;100.00;101450.97;5109607;28;19920;-41
2023/12/06 10:01:28;;;;;;;;;;;;;;;6.95;100.00;101458.03;5114793;28;19916;-39
2023/12/06 10:03:53;;;;;;;;;;;;;;;6.78;100.00;101457.78;5113501;28;20365;-39
2023/12/06 10:06:18;;;;;;;;;;;;;;;6.70;100.00;101454.97;5116963;27;19920;-38
2023/12/06 10:08:50;;;;;;;;;;;;;;;6.74;100.00;101459.06;5124082;28;19920;-40
2023/12/06 10:11:15;;;;;;;;;;;;;;;6.93;100.00;101460.03;5114028;28;19927;-39
2023/12/06 10:13:41;;;;;;;;;;;;;;;7.14;100.00;101452.66;5114030;28;19916;-39
2023/12/06 10:16:16;;;;;;;;;;;;;;;7.38;100.00;101456.69;5113336;28;19964;-39
2023/12/06 10:18:41;;;;;;;;;;;;;;;7.92;100.00;101460.38;5128469;28;19922;-39
2023/12/06 10:21:06;;;;;;;;;;;;;;;8.50;100.00;101456.50;5118963;27;19919;-39
2023/12/06 10:23:31;;;;;;;;;;;;;;;9.30;100.00;101451.94;5097924;28;19960;-40
2023/12/06 10:25:57;;;;;;;;;;;;;;;9.57;100.00;101456.28;5109274;28;19946;-39
2023/12/06 10:28:22;;;;;;;;;;;;;;;10.02;100.00;101456.97;5125393;28;19915;-42
2023/12/06 10:30:57;;;;;;;;;;;;;;;10.24;100.00;101448.31;5127477;27;19927;-41
2023/12/06 10:33:23;;;;;;;;;;;;;;;10.71;100.00;101449.53;5113011;28;19916;-40
2023/12/06 10:35:48;;;;;;;;;;;;;;;10.82;100.00;101451.06;5112275;28;20282;-41
2023/12/06 10:38:13;;;;;;;;;;;;;;;11.14;100.00;101455.59;5109558;28;20266;-39
2023/12/06 10:40:39;;;;;;;;;;;;;;;11.37;100.00;101451.19;5111804;28;19923;-39
2023/12/06 10:43:06;;;;;;;;;;;;;;;11.37;100.00;101458.41;5116533;27;19916;-38
2023/12/06 10:45:32;;;;;;;;;;;;;;;11.17;100.00;101461.47;5116069;28;20319;-39
2023/12/06 10:47:57;;;;;;;;;;;;;;;11.23;100.00;101459.94;5099403;28;19923;-39
2023/12/06 10:50:23;;;;;;;;;;;;;;;11.41;100.00;101467.84;5106498;28;20350;-39
2023/12/06 10:52:48;;;;;;;;;;;;;;;11.02;100.00;101457.78;5109863;28;20482;-39
2023/12/06 10:55:14;;;;;;;;;;;;;;;10.93;100.00;101458.81;5097927;27;20390;-39
2023/12/06 10:57:39;;;;;;;;;;;;;;;10.95;100.00;101467.53;5108308;28;19920;-40
2023/12/06 11:00:05;;;;;;;;;;;;;;;10.85;100.00;101465.03;5116082;28;19923;-37
2023/12/06 11:02:30;;;;;;;;;;;;;;;10.63;100.00;101463.84;5117230;28;19992;-38
2023/12/06 11:04:57;;;;;;;;;;;;;;;10.74;100.00;101458.16;5124842;27;19920;-38
2023/12/06 11:07:41;;;;;;;;;;;;;;;10.69;100.00;101460.50;5118301;28;20279;-39
2023/12/06 11:10:09;;;;;;;;;;;;;;;10.84;100.00;101470.59;5120557;28;20224;-39
2023/12/06 11:12:38;;;;;;;;;;;;;;;11.37;100.00;101470.03;5120389;28;19976;-39
2023/12/06 11:15:12;;;;;;;;;;;;;;;11.70;100.00;101472.63;5117707;28;19919;-39
2023/12/06 11:18:08;;;;;;;;;;;;;;;11.80;100.00;101467.03;5119272;28;19923;-39
2023/12/06 11:20:33;;;;;;;;;;;;;;;11.56;100.00;101470.66;5106885;28;20008;-38
2023/12/06 11:22:58;;;;;;;;;;;;;;;11.64;100.00;101467.94;5120027;28;19915;-50
2023/12/06 11:25:23;;;;;;;;;;;;;;;12.33;100.00;101454.66;5116923;28;19923;-40
2023/12/06 11:27:48;;;;;;;;;;;;;;;12.58;100.00;101465.28;5115010;28;19915;-39
2023/12/06 11:30:15;;;;;;;;;;;;;;;12.72;100.00;101468.03;5116016;28;19916;-39
2023/12/06 11:32:41;;;;;;;;;;;;;;;12.87;98.32;101465.38;5106851;28;19970;-38
2023/12/06 11:35:07;;;;;;;;;;;;;;;11.75;100.00;101461.34;5113848;28;19930;-40
2023/12/06 11:37:32;;;;;;;;;;;;;;;11.17;100.00;101450.69;5112038;28;19924;-39
2023/12/06 11:40:07;;;;;;;;;;;;;;;11.07;100.00;101462.66;5113393;28;19925;-38
2023/12/06 11:42:36;;;;;;;;;;;;;;;10.94;100.00;101460.50;5108712;28;20472;-39
2023/12/06 11:45:01;;;;;;;;;;;;;;;11.04;100.00;101449.53;5113559;28;19923;-38
2023/12/06 11:47:26;;;;;;;;;;;;;;;11.20;100.00;101449.53;5113764;28;19924;-39
2023/12/06 11:49:53;;;;;;;;;;;;;;;11.46;100.00;101448.47;5112966;28;19964;-39
2023/12/06 11:52:18;;;;;;;;;;;;;;;11.35;100.00;101449.66;5113149;28;19919;-37
2023/12/06 11:54:46;;;;;;;;;;;;;;;11.14;100.00;101448.34;5113920;28;19924;-38
2023/12/06 11:57:11;;;;;;;;;;;;;;;11.23;100.00;101441.09;5112209;28;19919;-40
2023/12/06 11:59:37;;;;;;;;;;;;;;;10.90;100.00;101451.91;5112694;28;19926;-39
2023/12/06 12:02:02;;;;;;;;;;;;;;;11.01;100.00;101444.50;5078700;28;20005;-38
2023/12/06 12:04:27;;;;;;;;;;;;;;;10.65;100.00;101448.38;5093673;28;19920;-39
2023/12/06 12:06:53;;;;;;;;;;;;;;;10.37;100.00;101458.59;5113134;28;19963;-39
2023/12/06 12:09:18;;;;;;;;;;;;;;;10.60;100.00;101455.28;5118708;28;19986;-38
2023/12/06 12:11:44;;;;;;;;;;;;;;;10.72;100.00;101459.31;5119979;28;19920;-37
2023/12/06 12:14:11;;;;;;;;;;;;;;;10.82;100.00;101467.22;5115495;28;19954;-39
2023/12/06 12:16:36;;;;;;;;;;;;;;;10.62;100.00;101464.84;5114762;28;19923;-38
2023/12/06 12:19:03;;;;;;;;;;;;;;;10.05;100.00;101470.91;5113876;28;19920;-38
2023/12/06 12:21:29;;;;;;;;;;;;;;;9.65;100.00;101463.53;5114621;28;19924;-39
2023/12/06 12:23:54;;;;;;;;;;;;;;;9.15;100.00;101473.16;5120945;27;19920;-39
2023/12/06 12:26:19;;;;;;;;;;;;;;;8.91;100.00;101472.97;5120003;27;19927;-39